Time;durP1;ratioP1;P1;durP2;ratioP2;P2;SDS_P1;SDS_P2;PMS_P1;PMS_P2;Temp;Humidity;BMP_temperature;BMP_pressure;BME280_temperature;BME280_humidity;BME280_pressure;Samples;Min_cycle;Max_cycle;Signal;HPM_P1;HPM_P2
2023/04/09 00:01:59;;;;;;;0.70;0.28;;;;;;;20.55;39.10;101742.56;5094722;28;20024;-50
2023/04/09 00:04:25;;;;;;;0.82;0.40;;;;;;;20.59;39.93;101747.50;5094891;28;20024;-48
2023/04/09 00:06:52;;;;;;;1.25;0.60;;;;;;;20.34;38.58;101750.66;5094967;28;20535;-47
2023/04/09 00:09:19;;;;;;;0.75;0.40;;;;;;;20.28;38.60;101741.59;5094622;28;20028;-46
2023/04/09 00:11:45;;;;;;;0.60;0.30;;;;;;;20.20;38.83;101737.38;5094183;28;20105;-49
2023/04/09 00:14:12;;;;;;;1.67;0.47;;;;;;;19.54;39.74;101744.38;5094166;28;20135;-50
2023/04/09 00:16:39;;;;;;;1.33;0.60;;;;;;;20.17;39.88;101745.22;5093868;28;20038;-46
2023/04/09 00:19:06;;;;;;;0.90;0.40;;;;;;;20.34;39.37;101739.78;5094546;28;20040;-49
2023/04/09 00:21:32;;;;;;;2.30;0.50;;;;;;;20.35;38.65;101736.78;5093894;28;20107;-48
2023/04/09 00:23:59;;;;;;;2.45;0.40;;;;;;;20.45;38.82;101744.28;5094108;28;20055;-49
2023/04/09 00:26:25;;;;;;;1.98;0.30;;;;;;;20.26;36.87;101749.97;5093313;28;20032;-50
2023/04/09 00:28:51;;;;;;;1.35;0.43;;;;;;;20.20;39.55;101750.16;5084933;28;20031;-49
2023/04/09 00:31:17;;;;;;;1.67;0.60;;;;;;;20.27;39.13;101748.09;5093787;28;20031;-48
2023/04/09 00:33:44;;;;;;;1.42;0.32;;;;;;;20.19;39.43;101745.78;5093636;28;20048;-48
2023/04/09 00:36:10;;;;;;;3.88;0.40;;;;;;;20.00;39.10;101742.50;5094697;28;20053;-52
2023/04/09 00:38:37;;;;;;;2.42;0.63;;;;;;;20.09;40.99;101754.59;5093777;28;20027;-45
2023/04/09 00:41:03;;;;;;;1.38;0.40;;;;;;;19.98;40.49;101752.78;5093478;28;20503;-45
2023/04/09 00:43:29;;;;;;;0.45;0.43;;;;;;;19.99;42.00;101751.75;5091618;28;20500;-48
2023/04/09 00:45:57;;;;;;;1.58;0.55;;;;;;;19.96;42.34;101757.66;5080795;28;20028;-47
2023/04/09 00:48:23;;;;;;;0.88;0.45;;;;;;;19.40;42.42;101753.91;5093374;28;20024;-45
2023/04/09 00:50:49;;;;;;;2.03;1.10;;;;;;;19.65;43.00;101759.81;5093746;28;20035;-49
2023/04/09 00:53:17;;;;;;;0.73;0.52;;;;;;;19.73;41.97;101756.72;5093199;28;20100;-46
2023/04/09 00:55:44;;;;;;;2.03;0.45;;;;;;;19.42;41.01;101755.28;5092445;28;20159;-45
2023/04/09 00:58:11;;;;;;;1.38;0.30;;;;;;;19.09;42.73;101758.72;5091777;28;20055;-48
2023/04/09 01:00:37;;;;;;;0.80;0.30;;;;;;;19.31;42.06;101758.06;5091566;28;20046;-47
2023/04/09 01:03:05;;;;;;;0.90;0.40;;;;;;;19.21;43.29;101759.53;5107650;28;20456;-48
2023/04/09 01:05:37;;;;;;;2.13;0.35;;;;;;;19.30;43.59;101764.56;5093332;28;20107;-45
2023/04/09 01:08:30;;;;;;;1.67;0.30;;;;;;;19.25;43.37;101760.69;5093325;28;20364;-48
2023/04/09 01:11:32;;;;;;;2.13;0.50;;;;;;;19.12;42.25;101762.84;5093759;28;20024;-46
2023/04/09 01:14:18;;;;;;;0.90;0.43;;;;;;;18.97;42.59;101752.50;5068447;28;20093;-49
2023/04/09 01:16:48;;;;;;;0.68;0.50;;;;;;;18.89;42.19;101747.47;5093342;28;20017;-46
2023/04/09 01:19:35;;;;;;;1.02;0.40;;;;;;;18.90;44.23;101749.09;5093108;28;20079;-49
2023/04/09 01:22:05;;;;;;;1.90;0.50;;;;;;;18.52;43.13;101755.03;5092884;28;20028;-44
2023/04/09 01:24:59;;;;;;;0.98;0.40;;;;;;;18.45;43.39;101752.44;5092995;28;20131;-49
2023/04/09 01:27:36;;;;;;;6.45;0.73;;;;;;;18.06;45.00;101760.19;5095947;28;20026;-47
2023/04/09 01:30:04;;;;;;;0.65;0.38;;;;;;;18.30;44.79;101752.91;5113357;28;20225;-46
2023/04/09 01:32:34;;;;;;;1.45;0.60;;;;;;;18.27;45.09;101752.56;5112876;28;20023;-45
2023/04/09 01:35:02;;;;;;;0.73;0.52;;;;;;;18.37;43.87;101750.06;5113389;28;20031;-45
2023/04/09 01:37:28;;;;;;;1.42;0.40;;;;;;;18.05;43.62;101749.59;5113313;28;20081;-47
2023/04/09 01:39:55;;;;;;;1.20;0.60;;;;;;;17.98;44.96;101755.09;5113014;28;20024;-46
2023/04/09 01:42:21;;;;;;;1.50;0.63;;;;;;;18.16;45.46;101751.50;5112767;28;20468;-48
2023/04/09 01:44:48;;;;;;;1.13;0.47;;;;;;;18.11;45.46;101743.22;5110835;28;20019;-46
2023/04/09 01:47:15;;;;;;;1.63;1.00;;;;;;;18.16;44.68;101749.59;5090328;28;20035;-47
2023/04/09 01:49:42;;;;;;;2.45;0.80;;;;;;;17.94;43.23;101751.22;5092237;28;20127;-49
2023/04/09 01:52:09;;;;;;;2.85;0.70;;;;;;;17.90;43.18;101747.31;5092175;28;20020;-49
2023/04/09 01:54:36;;;;;;;2.90;1.13;;;;;;;17.88;44.50;101747.56;5089332;28;20024;-49
2023/04/09 01:57:02;;;;;;;3.05;0.93;;;;;;;17.72;45.29;101752.78;5092502;28;20035;-49
2023/04/09 01:59:28;;;;;;;2.80;0.90;;;;;;;17.56;45.97;101746.97;5092006;28;20024;-46
2023/04/09 02:02:00;;;;;;;2.05;0.70;;;;;;;17.51;45.92;101754.94;5092800;28;20133;-49
2023/04/09 02:04:33;;;;;;;0.55;0.40;;;;;;;17.05;45.63;101745.56;5092247;28;20016;-49
2023/04/09 02:07:23;;;;;;;1.27;0.30;;;;;;;17.28;46.78;101754.84;5089239;28;20115;-50
2023/04/09 02:09:52;;;;;;;1.10;0.57;;;;;;;17.47;45.80;101748.34;5090759;28;20502;-48
2023/04/09 02:12:20;;;;;;;1.38;0.52;;;;;;;17.09;46.34;101746.75;5111729;28;20446;-52
2023/04/09 02:14:51;;;;;;;2.28;0.68;;;;;;;17.09;48.50;101754.84;5112531;28;20067;-49
2023/04/09 02:17:18;;;;;;;3.15;0.90;;;;;;;17.14;49.05;101749.59;5081105;28;20035;-50
2023/04/09 02:19:46;;;;;;;1.25;0.60;;;;;;;16.84;48.98;101751.44;5092085;28;20441;-51
2023/04/09 02:22:14;;;;;;;1.65;0.65;;;;;;;16.83;49.93;101757.91;5091927;28;20561;-50
2023/04/09 02:24:40;;;;;;;3.08;0.85;;;;;;;17.01;49.50;101752.47;5091993;28;20024;-51
2023/04/09 02:27:07;;;;;;;2.22;0.93;;;;;;;16.59;50.18;101754.97;5091821;28;20028;-51
2023/04/09 02:29:33;;;;;;;4.57;0.90;;;;;;;16.54;50.63;101762.09;5092096;28;20095;-51
2023/04/09 02:32:00;;;;;;;2.47;0.70;;;;;;;16.08;51.13;101766.03;5091926;28;20020;-51
2023/04/09 02:34:26;;;;;;;1.60;0.70;;;;;;;16.19;51.62;101762.63;5091723;28;20024;-51
2023/04/09 02:36:52;;;;;;;3.75;0.80;;;;;;;16.18;51.65;101771.78;5092101;28;20046;-51
2023/04/09 02:39:19;;;;;;;3.03;1.00;;;;;;;15.80;51.63;101767.28;5093174;28;20372;-51
2023/04/09 02:41:45;;;;;;;2.25;0.77;;;;;;;15.96;51.47;101767.81;5095716;28;20491;-52
2023/04/09 02:44:11;;;;;;;3.00;1.23;;;;;;;15.43;52.94;101774.31;5095911;28;20032;-48
2023/04/09 02:46:40;;;;;;;3.15;1.00;;;;;;;15.38;52.53;101773.28;5096082;28;20026;-48
2023/04/09 02:49:07;;;;;;;3.60;1.10;;;;;;;15.67;52.18;101778.16;5095911;28;20016;-49
2023/04/09 02:51:36;;;;;;;4.65;1.10;;;;;;;15.55;52.09;101775.31;5095953;28;20024;-48
2023/04/09 02:54:03;;;;;;;2.85;1.00;;;;;;;15.24;51.85;101776.06;5113250;28;20027;-49
2023/04/09 02:56:29;;;;;;;1.92;0.80;;;;;;;15.24;52.73;101777.94;5101376;28;20028;-48
2023/04/09 02:58:55;;;;;;;2.38;0.93;;;;;;;15.01;52.43;101779.28;5095993;28;20059;-50
2023/04/09 03:01:22;;;;;;;2.03;0.98;;;;;;;14.81;52.71;101783.06;5096038;28;20031;-49
2023/04/09 03:03:48;;;;;;;3.38;1.13;;;;;;;14.63;52.75;101787.22;5096474;28;20032;-47
2023/04/09 03:06:14;;;;;;;4.35;1.13;;;;;;;14.72;52.88;101782.47;5095889;28;20102;-47
2023/04/09 03:08:41;;;;;;;2.65;0.93;;;;;;;14.90;52.54;101788.00;5095816;28;20024;-47
2023/04/09 03:11:07;;;;;;;6.15;1.15;;;;;;;14.67;53.33;101793.88;5095890;28;20056;-48
2023/04/09 03:13:33;;;;;;;2.72;0.90;;;;;;;14.72;52.84;101804.03;5095614;28;20123;-47
2023/04/09 03:15:59;;;;;;;1.88;0.95;;;;;;;14.63;53.11;101799.88;5095656;28;20059;-48
2023/04/09 03:18:25;;;;;;;3.53;1.25;;;;;;;14.81;52.31;101800.06;5094538;28;20031;-47
2023/04/09 03:20:52;;;;;;;4.88;1.13;;;;;;;14.82;52.51;101817.88;5094735;28;20075;-47
2023/04/09 03:23:18;;;;;;;3.40;1.52;;;;;;;14.73;53.27;101817.28;5095374;28;20484;-47
2023/04/09 03:25:44;;;;;;;4.90;1.50;;;;;;;14.82;52.86;101825.13;5095452;28;20055;-47
2023/04/09 03:28:10;;;;;;;3.67;1.45;;;;;;;14.90;52.97;101816.84;5093463;28;20035;-48
2023/04/09 03:30:36;;;;;;;4.30;1.08;;;;;;;14.81;53.09;101824.31;5094477;28;20539;-47
2023/04/09 03:33:03;;;;;;;5.70;1.20;;;;;;;14.79;52.80;101831.78;5095298;28;20028;-48
2023/04/09 03:35:29;;;;;;;4.35;1.15;;;;;;;14.68;52.72;101833.25;5095256;28;20028;-47
2023/04/09 03:37:55;;;;;;;7.00;1.25;;;;;;;14.50;53.46;101831.19;5095311;28;20032;-47
2023/04/09 03:40:21;;;;;;;2.75;1.00;;;;;;;14.50;54.09;101825.81;5094701;28;20032;-47
2023/04/09 03:42:48;;;;;;;4.38;1.00;;;;;;;14.49;54.60;101829.53;5095069;28;20028;-51
2023/04/09 03:45:14;;;;;;;5.70;1.10;;;;;;;14.36;55.53;101831.34;5095297;28;20024;-48
2023/04/09 03:47:40;;;;;;;5.03;1.63;;;;;;;13.99;56.69;101836.28;5094947;28;20028;-47
2023/04/09 03:50:07;;;;;;;2.97;1.38;;;;;;;14.22;56.42;101838.63;5093661;28;20024;-47
2023/04/09 03:52:33;;;;;;;6.82;1.38;;;;;;;14.34;55.97;101850.44;5094781;28;20030;-50
2023/04/09 03:54:59;;;;;;;4.07;1.40;;;;;;;14.19;55.74;101852.47;5094759;28;20042;-51
2023/04/09 03:57:25;;;;;;;3.10;1.25;;;;;;;13.87;56.53;101854.88;5094772;28;20027;-47
2023/04/09 03:59:52;;;;;;;5.32;1.52;;;;;;;13.92;56.19;101857.78;5094526;28;20028;-50
2023/04/09 04:02:18;;;;;;;6.72;1.33;;;;;;;13.82;56.63;101861.91;5113768;28;20031;-51
2023/04/09 04:04:45;;;;;;;4.40;1.70;;;;;;;13.54;56.96;101862.00;5104602;28;20020;-47
2023/04/09 04:07:11;;;;;;;3.88;1.40;;;;;;;13.53;57.41;101880.00;5094419;28;20028;-49
2023/04/09 04:09:37;;;;;;;2.03;1.25;;;;;;;13.77;57.11;101886.75;5094425;28;20031;-51
2023/04/09 04:12:03;;;;;;;4.20;1.48;;;;;;;13.77;56.79;101894.84;5094048;28;20480;-48
2023/04/09 04:14:30;;;;;;;4.80;1.88;;;;;;;13.62;57.11;101900.34;5094254;28;20051;-47
2023/04/09 04:16:56;;;;;;;9.25;2.10;;;;;;;12.80;59.47;101901.03;5094461;28;20020;-49
2023/04/09 04:19:22;;;;;;;3.00;1.38;;;;;;;13.22;58.48;101896.63;5113568;28;20107;-49
2023/04/09 04:21:48;;;;;;;2.25;1.13;;;;;;;13.42;58.12;101902.94;5114426;28;20031;-47
2023/04/09 04:24:15;;;;;;;4.07;1.38;;;;;;;13.44;57.73;101914.34;5095455;28;20038;-48
2023/04/09 04:26:41;;;;;;;2.75;1.20;;;;;;;13.45;57.58;101915.16;5094126;28;20373;-49
2023/04/09 04:29:07;;;;;;;3.38;1.42;;;;;;;13.35;58.22;101923.59;5094197;28;20093;-47
2023/04/09 04:31:33;;;;;;;6.90;1.65;;;;;;;13.52;57.55;101917.88;5093647;28;20032;-51
2023/04/09 04:33:59;;;;;;;3.30;1.40;;;;;;;13.42;58.44;101920.94;5091495;28;20034;-48
2023/04/09 04:36:26;;;;;;;2.53;0.95;;;;;;;13.42;58.73;101927.13;5092905;28;20024;-46
2023/04/09 04:38:52;;;;;;;8.25;2.10;;;;;;;13.58;58.77;101925.97;5093984;28;20028;-48
2023/04/09 04:41:18;;;;;;;4.90;1.55;;;;;;;13.36;59.76;101938.69;5093124;28;20081;-49
2023/04/09 04:43:46;;;;;;;1.67;1.50;;;;;;;13.49;60.52;101937.91;5094068;28;20026;-51
2023/04/09 04:46:13;;;;;;;2.80;1.10;;;;;;;13.40;61.09;101950.72;5092862;28;20503;-51
2023/04/09 04:48:39;;;;;;;1.73;0.80;;;;;;;13.44;61.12;101948.47;5102608;28;20068;-46
2023/04/09 04:51:05;;;;;;;3.17;1.00;;;;;;;13.27;61.84;101947.09;5108604;28;20036;-47
2023/04/09 04:53:31;;;;;;;3.92;1.17;;;;;;;13.00;62.28;101948.75;5107282;28;20597;-47
2023/04/09 04:55:58;;;;;;;1.55;0.80;;;;;;;12.91;62.09;101945.38;5091645;28;20032;-51
2023/04/09 04:58:24;;;;;;;3.30;1.25;;;;;;;12.76;62.80;101952.66;5090919;28;20035;-47
2023/04/09 05:00:51;;;;;;;5.13;1.33;;;;;;;12.71;62.60;101958.63;5091798;28;20039;-51
2023/04/09 05:03:17;;;;;;;2.35;1.73;;;;;;;12.65;62.21;101951.31;5095267;28;20072;-50
2023/04/09 05:05:44;;;;;;;4.75;1.55;;;;;;;12.56;62.07;101958.69;5114026;28;20023;-50
2023/04/09 05:08:11;;;;;;;4.40;1.40;;;;;;;12.62;62.01;101960.63;5109225;28;20111;-49
2023/04/09 05:10:40;;;;;;;1.90;1.33;;;;;;;12.55;62.04;101959.72;5091475;28;20388;-51
2023/04/09 05:13:07;;;;;;;2.97;1.58;;;;;;;12.64;61.91;101963.09;5092308;28;20341;-51
2023/04/09 05:15:36;;;;;;;3.50;1.50;;;;;;;11.78;65.65;101962.13;5110249;28;20471;-50
2023/04/09 05:18:02;;;;;;;2.25;1.25;;;;;;;11.70;66.52;101964.88;5111144;28;20032;-50
2023/04/09 05:20:28;;;;;;;2.55;1.30;;;;;;;11.78;66.45;101976.34;5092053;28;20507;-51
2023/04/09 05:22:55;;;;;;;3.28;1.42;;;;;;;12.03;65.39;101978.75;5092965;28;20313;-48
2023/04/09 05:25:21;;;;;;;3.30;1.40;;;;;;;12.10;65.05;101974.28;5105511;28;20031;-50
2023/04/09 05:27:47;;;;;;;1.13;0.88;;;;;;;12.22;64.51;101972.81;5109741;28;20019;-46
2023/04/09 05:30:14;;;;;;;5.50;1.40;;;;;;;11.98;65.50;101986.53;5113473;28;20459;-47
2023/04/09 05:32:40;;;;;;;2.88;1.33;;;;;;;12.10;65.05;101985.03;5110352;28;20019;-50
2023/04/09 05:35:07;;;;;;;3.20;1.02;;;;;;;12.25;64.57;101988.50;5113169;28;20379;-50
2023/04/09 05:37:33;;;;;;;2.97;0.82;;;;;;;12.21;64.66;101991.75;5105642;28;20480;-47
2023/04/09 05:39:59;;;;;;;8.13;1.20;;;;;;;12.23;64.41;101981.69;5091219;28;20036;-50
2023/04/09 05:42:26;;;;;;;1.95;1.20;;;;;;;12.26;64.21;101997.41;5092420;28;20093;-47
2023/04/09 05:44:52;;;;;;;2.45;0.98;;;;;;;12.21;64.41;101991.75;5092857;28;20038;-49
2023/04/09 05:47:18;;;;;;;7.28;1.27;;;;;;;12.22;64.45;101994.28;5110503;28;20084;-46
2023/04/09 05:49:45;;;;;;;3.78;1.20;;;;;;;12.19;64.53;101994.63;5113397;28;20495;-51
2023/04/09 05:52:11;;;;;;;3.63;1.42;;;;;;;12.02;65.20;101998.56;5102045;28;20460;-46
2023/04/09 05:54:37;;;;;;;2.95;1.52;;;;;;;11.83;66.63;101997.28;5112930;28;20387;-47
2023/04/09 05:57:04;;;;;;;2.20;1.10;;;;;;;11.94;65.79;102001.31;5109824;28;20062;-50
2023/04/09 05:59:30;;;;;;;3.30;1.38;;;;;;;11.99;65.64;102004.28;5112592;28;20019;-49
2023/04/09 06:01:56;;;;;;;2.28;1.50;;;;;;;11.87;65.86;101999.38;5094148;28;20406;-49
2023/04/09 06:04:22;;;;;;;3.30;1.38;;;;;;;11.78;66.47;101994.31;5092372;28;20095;-46
2023/04/09 06:06:48;;;;;;;4.07;1.52;;;;;;;11.68;67.30;101997.25;5098070;28;20108;-48
2023/04/09 06:09:15;;;;;;;4.38;1.67;;;;;;;11.51;68.43;101995.78;5093160;27;20036;-48
2023/04/09 06:11:41;;;;;;;5.10;1.45;;;;;;;11.80;67.18;101993.09;5091960;28;20040;-47
2023/04/09 06:14:07;;;;;;;5.13;1.42;;;;;;;11.82;67.11;101993.75;5091604;28;20049;-49
2023/04/09 06:16:33;;;;;;;3.97;1.08;;;;;;;12.02;66.41;101993.19;5097300;28;20372;-47
2023/04/09 06:19:00;;;;;;;3.53;1.40;;;;;;;11.89;66.46;101996.53;5112270;28;20019;-49
2023/04/09 06:21:26;;;;;;;5.20;1.20;;;;;;;11.88;66.63;101986.81;5110634;28;20295;-47
2023/04/09 06:23:52;;;;;;;3.95;1.40;;;;;;;11.71;67.36;101991.50;5112344;28;20387;-48
2023/04/09 06:26:18;;;;;;;2.08;1.25;;;;;;;11.56;68.07;101986.16;5104916;28;20024;-49
2023/04/09 06:28:45;;;;;;;4.63;1.35;;;;;;;11.60;67.54;101983.91;5091971;28;20017;-50
2023/04/09 06:31:11;;;;;;;4.07;1.30;;;;;;;11.24;68.54;101990.00;5091535;28;20038;-49
2023/04/09 06:33:37;;;;;;;2.55;1.23;;;;;;;10.49;71.23;101989.91;5092803;28;20071;-49
2023/04/09 06:36:03;;;;;;;3.97;1.50;;;;;;;10.19;72.96;101989.75;5091980;28;20030;-46
2023/04/09 06:38:30;;;;;;;2.85;1.30;;;;;;;10.15;73.61;101990.25;5091984;28;20024;-49
2023/04/09 06:40:56;;;;;;;3.03;1.30;;;;;;;10.57;71.48;101987.22;5091586;28;20028;-50
2023/04/09 06:43:22;;;;;;;3.03;1.40;;;;;;;10.62;71.46;101994.72;5091767;28;20089;-48
2023/04/09 06:45:49;;;;;;;2.00;1.20;;;;;;;10.78;70.56;101995.44;5091953;28;20024;-50
2023/04/09 06:48:16;;;;;;;2.30;1.10;;;;;;;10.87;70.13;101981.97;5091830;28;20024;-49
2023/04/09 06:50:43;;;;;;;2.90;1.40;;;;;;;10.96;69.88;101981.72;5092314;28;20058;-47
2023/04/09 06:53:09;;;;;;;3.35;1.52;;;;;;;10.80;70.34;101985.34;5091650;28;20023;-47
2023/04/09 06:55:35;;;;;;;4.35;1.55;;;;;;;10.88;70.09;101992.47;5091814;28;20024;-47
2023/04/09 06:58:02;;;;;;;3.17;1.52;;;;;;;10.98;69.71;101994.91;5091912;28;20031;-46
2023/04/09 07:00:28;;;;;;;3.85;1.65;;;;;;;11.04;69.61;101994.19;5091537;28;20032;-46
2023/04/09 07:02:55;;;;;;;3.35;1.15;;;;;;;10.68;71.10;101994.81;5091703;28;20023;-47
2023/04/09 07:05:21;;;;;;;3.38;1.80;;;;;;;10.52;71.29;101997.63;5091687;28;20453;-49
2023/04/09 07:07:47;;;;;;;4.82;1.75;;;;;;;10.90;70.01;102005.72;5092230;28;20059;-49
2023/04/09 07:10:14;;;;;;;9.60;2.60;;;;;;;10.60;71.06;102004.75;5091235;28;20042;-49
2023/04/09 07:12:40;;;;;;;5.78;2.35;;;;;;;10.69;70.71;102004.53;5091666;28;20059;-47
2023/04/09 07:15:07;;;;;;;5.25;3.00;;;;;;;10.90;70.28;102008.41;5091499;28;20552;-49
2023/04/09 07:17:34;;;;;;;3.67;2.50;;;;;;;10.72;70.30;102009.53;5089679;28;20043;-49
2023/04/09 07:20:01;;;;;;;2.80;1.83;;;;;;;10.86;69.94;102007.09;5091280;28;20115;-46
2023/04/09 07:22:29;;;;;;;5.78;1.95;;;;;;;10.74;70.50;102004.00;5091594;28;20647;-48
2023/04/09 07:24:55;;;;;;;2.75;1.65;;;;;;;10.85;70.34;102003.56;5092836;28;20361;-47
2023/04/09 07:27:23;;;;;;;3.65;1.90;;;;;;;10.79;70.19;101999.75;5094429;28;20028;-46
2023/04/09 07:29:49;;;;;;;3.83;1.60;;;;;;;10.82;69.82;102001.25;5094144;28;20059;-47
2023/04/09 07:32:16;;;;;;;3.92;1.38;;;;;;;10.72;69.81;102006.03;5093937;28;20195;-49
2023/04/09 07:34:43;;;;;;;3.15;1.40;;;;;;;10.52;70.47;102009.16;5095127;28;20099;-47
2023/04/09 07:37:10;;;;;;;3.50;1.30;;;;;;;10.68;69.50;102010.06;5094871;28;20472;-46
2023/04/09 07:39:36;;;;;;;4.32;1.30;;;;;;;10.45;70.24;102015.41;5094878;28;20031;-47
2023/04/09 07:42:03;;;;;;;2.60;1.05;;;;;;;9.98;71.83;102018.94;5095280;28;20028;-47
2023/04/09 07:44:36;;;;;;;5.53;1.30;;;;;;;9.59;73.10;102022.38;5092930;28;20032;-50
2023/04/09 07:47:03;;;;;;;4.68;1.20;;;;;;;9.74;72.74;102022.53;5089381;28;20040;-50
2023/04/09 07:49:30;;;;;;;3.25;1.10;;;;;;;10.11;71.35;102013.88;5074291;28;20077;-50
2023/04/09 07:51:58;;;;;;;4.50;1.50;;;;;;;10.07;71.43;102020.56;5074295;28;20170;-47
2023/04/09 07:54:24;;;;;;;2.92;1.20;;;;;;;10.16;71.01;102008.84;5074491;28;20027;-48
2023/04/09 07:56:51;;;;;;;3.65;1.25;;;;;;;10.24;70.24;102014.16;5074706;28;20484;-50
2023/04/09 07:59:17;;;;;;;2.97;1.30;;;;;;;10.22;70.14;102008.13;5086353;28;20031;-50
2023/04/09 08:01:44;;;;;;;4.32;1.10;;;;;;;10.23;70.38;102017.84;5094498;28;20028;-50
2023/04/09 08:04:11;;;;;;;4.30;1.63;;;;;;;10.36;70.40;102014.59;5094498;28;20024;-47
2023/04/09 08:06:38;;;;;;;4.32;1.60;;;;;;;10.12;71.23;102020.88;5094654;28;20024;-47
2023/04/09 08:09:05;;;;;;;3.33;1.40;;;;;;;10.29;70.92;102021.66;5094292;28;20035;-46
2023/04/09 08:11:31;;;;;;;4.68;1.73;;;;;;;10.02;72.37;102017.56;5094282;28;20024;-47
2023/04/09 08:14:00;;;;;;;2.42;1.58;;;;;;;10.01;72.40;102018.59;5094106;28;20050;-46
2023/04/09 08:16:26;;;;;;;2.63;1.30;;;;;;;10.00;72.15;102020.44;5094931;28;20028;-46
2023/04/09 08:18:53;;;;;;;4.78;1.42;;;;;;;10.22;71.63;102015.31;5094174;28;20043;-47
2023/04/09 08:21:19;;;;;;;4.32;1.50;;;;;;;9.99;72.33;102025.94;5093946;28;20036;-46
2023/04/09 08:23:45;;;;;;;2.55;1.27;;;;;;;10.07;72.12;102023.25;5094096;28;20025;-48
2023/04/09 08:26:11;;;;;;;2.65;1.20;;;;;;;9.96;72.04;102018.28;5094056;28;20423;-48
2023/04/09 08:28:38;;;;;;;2.67;1.50;;;;;;;9.98;72.02;102018.94;5094214;28;20078;-46
2023/04/09 08:31:04;;;;;;;6.63;1.50;;;;;;;9.85;72.22;102024.84;5093815;28;20066;-46
2023/04/09 08:33:30;;;;;;;4.38;1.80;;;;;;;9.95;72.46;102022.78;5106813;28;20023;-46
2023/04/09 08:35:57;;;;;;;2.28;1.33;;;;;;;9.78;72.34;102022.00;5114168;28;20026;-48
2023/04/09 08:38:23;;;;;;;5.00;1.52;;;;;;;9.69;72.97;102031.06;5114412;28;20032;-48
2023/04/09 08:40:49;;;;;;;3.10;1.52;;;;;;;9.81;72.40;102022.66;5114056;28;20027;-47
2023/04/09 08:43:18;;;;;;;2.38;1.27;;;;;;;9.71;72.51;102031.69;5095738;28;20031;-46
2023/04/09 08:45:44;;;;;;;5.53;1.55;;;;;;;9.56;72.92;102030.75;5092503;28;20464;-46
2023/04/09 08:48:12;;;;;;;5.40;2.08;;;;;;;9.82;72.62;102027.00;5107446;28;20119;-46
2023/04/09 08:50:39;;;;;;;2.97;1.83;;;;;;;9.68;72.40;102024.03;5106090;27;20487;-47
2023/04/09 08:53:09;;;;;;;6.72;2.10;;;;;;;9.53;72.81;102023.06;5097237;28;20035;-48
2023/04/09 08:55:38;;;;;;;6.30;2.25;;;;;;;9.72;72.71;102030.72;5105580;28;20035;-50
2023/04/09 08:58:09;;;;;;;4.22;2.60;;;;;;;9.49;72.80;102025.28;5111264;28;20019;-51
2023/04/09 09:00:36;;;;;;;4.68;2.22;;;;;;;9.40;72.83;102020.94;5113175;28;20020;-50
2023/04/09 09:03:05;;;;;;;4.47;2.90;;;;;;;9.34;72.98;102015.44;5110756;28;20027;-48
2023/04/09 09:05:42;;;;;;;6.68;3.38;;;;;;;9.57;72.87;102019.06;5113693;28;20515;-50
2023/04/09 09:08:32;;;;;;;10.15;2.88;;;;;;;9.22;73.83;102023.78;5104182;28;20476;-46
2023/04/09 09:10:58;;;;;;;7.93;4.60;;;;;;;9.11;74.66;102021.47;5091019;28;20044;-49
2023/04/09 09:13:26;;;;;;;7.25;5.53;;;;;;;9.11;74.74;102020.63;5091579;28;20032;-47
2023/04/09 09:16:10;;;;;;;7.03;3.28;;;;;;;8.99;75.53;102022.78;5107131;28;20023;-48
2023/04/09 09:18:41;;;;;;;5.22;2.60;;;;;;;8.93;75.83;102015.44;5101100;28;20042;-48
2023/04/09 09:21:12;;;;;;;6.55;2.40;;;;;;;8.96;75.37;102018.63;5092336;28;20020;-46
2023/04/09 09:23:39;;;;;;;3.05;1.70;;;;;;;8.93;75.17;102018.09;5090639;28;20496;-48
2023/04/09 09:26:16;;;;;;;3.40;1.45;;;;;;;9.01;74.63;102019.97;5093158;28;20109;-46
2023/04/09 09:28:44;;;;;;;6.15;2.00;;;;;;;8.94;74.10;102014.47;5090514;28;20384;-45
2023/04/09 09:31:12;;;;;;;2.95;1.50;;;;;;;8.95;73.95;102006.28;5092500;28;20028;-46
2023/04/09 09:33:38;;;;;;;3.10;1.50;;;;;;;8.99;73.73;102015.63;5099628;28;20124;-48
2023/04/09 09:36:05;;;;;;;2.55;1.30;;;;;;;8.91;73.76;102004.94;5113007;28;20426;-48
2023/04/09 09:38:31;;;;;;;3.20;1.42;;;;;;;9.19;72.29;102002.75;5105596;28;20032;-45
2023/04/09 09:40:58;;;;;;;6.05;1.52;;;;;;;9.01;72.61;101999.44;5112718;28;20031;-49
2023/04/09 09:43:24;;;;;;;2.85;1.30;;;;;;;8.96;72.69;101997.25;5110404;28;20030;-48
2023/04/09 09:45:52;;;;;;;3.13;1.50;;;;;;;8.95;72.76;102000.09;5112974;28;20100;-46
2023/04/09 09:48:18;;;;;;;3.08;1.27;;;;;;;8.83;72.68;101996.06;5109025;28;20016;-46
2023/04/09 09:50:47;;;;;;;4.80;1.30;;;;;;;8.90;72.46;101981.06;5112664;28;20357;-46
2023/04/09 09:53:16;;;;;;;4.57;1.13;;;;;;;8.75;72.86;101982.72;5108791;28;20032;-46
2023/04/09 09:55:51;;;;;;;3.22;1.50;;;;;;;8.61;73.26;101979.72;5092355;28;20426;-47
2023/04/09 09:58:27;;;;;;;3.63;1.67;;;;;;;9.01;73.45;101970.06;5093051;28;20145;-46
2023/04/09 10:00:56;;;;;;;2.72;1.33;;;;;;;8.83;73.67;101978.25;5112520;28;20179;-50
2023/04/09 10:03:26;;;;;;;2.58;1.27;;;;;;;8.73;74.51;101975.72;5107466;28;20032;-49
2023/04/09 10:05:53;;;;;;;3.53;1.10;;;;;;;8.59;75.05;101972.88;5092303;28;20031;-48
2023/04/09 10:08:23;;;;;;;3.13;1.55;;;;;;;8.52;75.39;101974.53;5090906;28;20034;-46
2023/04/09 10:10:51;;;;;;;2.40;1.17;;;;;;;8.51;75.51;101972.88;5092155;28;20472;-45
2023/04/09 10:13:33;;;;;;;5.28;1.40;;;;;;;8.63;75.31;101968.88;5090909;28;20020;-45
2023/04/09 10:16:00;;;;;;;2.17;0.95;;;;;;;8.58;75.47;101969.38;5072212;28;20051;-45
2023/04/09 10:18:27;;;;;;;5.43;1.25;;;;;;;8.53;75.58;101969.03;5072343;28;20028;-46
2023/04/09 10:21:00;;;;;;;4.18;1.27;;;;;;;8.57;75.38;101965.03;5091748;28;20030;-45
2023/04/09 10:23:41;;;;;;;2.85;1.10;;;;;;;8.48;75.65;101962.50;5089686;28;20032;-46
2023/04/09 10:26:09;;;;;;;4.68;1.20;;;;;;;8.41;75.64;101965.00;5092152;28;20395;-46
2023/04/09 10:28:37;;;;;;;2.35;1.08;;;;;;;8.30;76.21;101965.28;5091040;28;20030;-45
2023/04/09 10:31:07;;;;;;;2.95;1.20;;;;;;;8.26;76.59;101961.28;5091576;28;20020;-46
2023/04/09 10:33:36;;;;;;;4.63;1.30;;;;;;;8.21;76.76;101970.59;5098051;28;20031;-46
2023/04/09 10:36:14;;;;;;;2.55;1.33;;;;;;;8.18;76.81;101968.25;5112256;28;20031;-45
2023/04/09 10:38:45;;;;;;;1.80;1.20;;;;;;;8.16;77.15;101961.41;5104536;28;20028;-50
2023/04/09 10:41:30;;;;;;;1.80;0.93;;;;;;;8.18;76.81;101962.94;5111851;28;20028;-50
2023/04/09 10:43:57;;;;;;;3.90;1.20;;;;;;;8.22;76.54;101958.13;5109576;28;20035;-47
2023/04/09 10:46:28;;;;;;;2.00;1.10;;;;;;;8.19;76.33;101959.25;5112665;28;20322;-46
2023/04/09 10:49:30;;;;;;;1.92;1.00;;;;;;;8.33;74.76;101959.59;5103252;28;20021;-47
2023/04/09 10:52:06;;;;;;;1.90;1.13;;;;;;;8.49;73.77;101957.00;5091390;28;20123;-49
2023/04/09 10:54:33;;;;;;;3.85;1.60;;;;;;;8.33;74.06;101951.59;5089846;28;20071;-48
2023/04/09 10:57:08;;;;;;;1.85;1.02;;;;;;;8.31;74.40;101961.63;5091876;28;20024;-49
2023/04/09 10:59:43;;;;;;;5.80;0.95;;;;;;;8.08;75.02;101958.72;5104532;28;20027;-48
2023/04/09 11:02:37;;;;;;;2.45;1.23;;;;;;;8.45;73.97;101961.84;5115944;28;20421;-50
2023/04/09 11:05:12;;;;;;;4.30;1.48;;;;;;;8.23;74.50;101972.28;5113530;28;20051;-50
2023/04/09 11:07:43;;;;;;;5.18;1.60;;;;;;;8.26;74.63;101966.59;5116192;28;20023;-49
2023/04/09 11:10:09;;;;;;;4.35;1.48;;;;;;;8.13;75.29;101967.91;5096576;28;20476;-50
2023/04/09 11:12:35;;;;;;;2.90;1.35;;;;;;;8.07;75.68;101983.72;5098923;28;20032;-50
2023/04/09 11:15:02;;;;;;;3.33;1.13;;;;;;;8.00;75.86;101967.56;5115687;28;20071;-49
2023/04/09 11:17:28;;;;;;;3.35;1.25;;;;;;;7.92;76.25;101971.00;5108947;28;20024;-50
2023/04/09 11:19:55;;;;;;;3.05;1.42;;;;;;;7.87;76.38;101967.16;5114915;28;20024;-49
2023/04/09 11:22:21;;;;;;;3.35;1.20;;;;;;;8.16;76.45;101972.06;5111249;28;20047;-50
2023/04/09 11:24:49;;;;;;;2.97;1.23;;;;;;;7.87;76.70;101964.47;5112695;28;20483;-46
2023/04/09 11:27:18;;;;;;;2.67;1.15;;;;;;;7.82;76.71;101967.63;5112778;28;20031;-48
2023/04/09 11:29:45;;;;;;;3.25;1.40;;;;;;;7.85;76.47;101969.97;5074921;28;20036;-46
2023/04/09 11:32:12;;;;;;;1.58;1.15;;;;;;;7.74;76.21;101964.09;5074841;28;20373;-46